Time;durP1;ratioP1;P1;durP2;ratioP2;P2;SDS_P1;SDS_P2;PMS_P1;PMS_P2;Temp;Humidity;BMP_temperature;BMP_pressure;BME280_temperature;BME280_humidity;BME280_pressure;Samples;Min_cycle;Max_cycle;Signal;HPM_P1;HPM_P2
2023/03/12 00:00:44;;;;;;;3.35;1.83;;;19.30;59.30;;;;;;4797843;29;87347;-82
2023/03/12 00:03:09;;;;;;;2.78;1.63;;;19.30;59.20;;;;;;4795917;29;87253;-82
2023/03/12 00:05:42;;;;;;;3.05;1.70;;;19.30;59.30;;;;;;4797335;29;87457;-82
2023/03/12 00:08:09;;;;;;;2.35;1.55;;;19.30;59.20;;;;;;4796160;29;88570;-82
2023/03/12 00:10:36;;;;;;;4.07;1.77;;;19.30;59.30;;;;;;4799274;29;87900;-83
2023/03/12 00:13:02;;;;;;;3.78;1.80;;;19.30;59.30;;;;;;4806602;29;88721;-82
2023/03/12 00:15:28;;;;;;;2.63;1.80;;;19.30;59.30;;;;;;4806255;29;88885;-82
2023/03/12 00:17:53;;;;;;;2.90;1.60;;;19.30;59.40;;;;;;4806981;29;87716;-83
2023/03/12 00:20:20;;;;;;;3.33;1.73;;;19.20;59.40;;;;;;4806939;29;87468;-82
2023/03/12 00:22:46;;;;;;;1.85;1.50;;;19.20;59.20;;;;;;4807441;29;87352;-82
2023/03/12 00:25:24;;;;;;;3.22;1.50;;;19.20;59.40;;;;;;4807159;29;87403;-83
2023/03/12 00:27:50;;;;;;;2.65;1.42;;;19.20;59.30;;;;;;4806950;29;89123;-82
2023/03/12 00:30:15;;;;;;;2.42;1.45;;;19.20;59.40;;;;;;4805642;29;88452;-82
2023/03/12 00:32:41;;;;;;;2.50;1.35;;;19.20;59.40;;;;;;4806618;29;87114;-83
2023/03/12 00:35:07;;;;;;;3.03;2.00;;;19.10;59.30;;;;;;4807791;29;86999;-82
2023/03/12 00:37:32;;;;;;;3.92;1.77;;;19.10;59.40;;;;;;4788602;29;90844;-82
2023/03/12 00:40:00;;;;;;;2.45;1.38;;;19.10;59.30;;;;;;4806340;29;89013;-81
2023/03/12 00:42:27;;;;;;;1.73;1.60;;;19.10;59.20;;;;;;4806277;29;87465;-82
2023/03/12 00:44:52;;;;;;;4.07;1.58;;;19.10;59.30;;;;;;4805936;29;87574;-83
2023/03/12 00:47:18;;;;;;;2.65;1.60;;;19.10;59.30;;;;;;4806710;29;88359;-81
2023/03/12 00:49:43;;;;;;;2.83;1.75;;;19.00;59.20;;;;;;4804136;29;87964;-82
2023/03/12 00:52:09;;;;;;;2.67;1.38;;;19.00;59.10;;;;;;4802465;29;87424;-82
2023/03/12 00:54:35;;;;;;;2.40;1.60;;;19.00;59.30;;;;;;4802729;29;87556;-82
2023/03/12 00:57:01;;;;;;;2.15;1.33;;;19.00;59.20;;;;;;4802941;29;89067;-82
2023/03/12 00:59:26;;;;;;;2.80;1.60;;;19.00;59.30;;;;;;4803866;29;87614;-82
2023/03/12 01:01:52;;;;;;;3.10;1.85;;;19.00;59.20;;;;;;4806016;29;88520;-82
2023/03/12 01:04:17;;;;;;;2.38;1.48;;;19.00;59.20;;;;;;4806305;29;87095;-82
2023/03/12 01:06:43;;;;;;;2.50;1.60;;;19.00;59.20;;;;;;4805668;29;88575;-82
2023/03/12 01:09:09;;;;;;;3.63;1.65;;;18.90;59.20;;;;;;4806713;29;88294;-82
2023/03/12 01:11:36;;;;;;;2.30;1.58;;;18.90;59.10;;;;;;4805128;29;87952;-82
2023/03/12 01:14:07;;;;;;;2.35;1.27;;;19.00;59.10;;;;;;4806911;29;87221;-82
2023/03/12 01:16:33;;;;;;;2.20;1.52;;;18.90;59.10;;;;;;4805805;29;88427;-82
2023/03/12 01:19:00;;;;;;;2.08;1.60;;;18.90;59.10;;;;;;4806558;29;88087;-82
2023/03/12 01:21:27;;;;;;;2.53;1.80;;;18.90;59.20;;;;;;4799229;29;87702;-82
2023/03/12 01:23:53;;;;;;;2.75;1.40;;;18.90;59.10;;;;;;4805970;29;87074;-82
2023/03/12 01:26:19;;;;;;;2.70;1.27;;;18.90;59.10;;;;;;4804964;29;89315;-82
2023/03/12 01:28:45;;;;;;;3.30;1.60;;;18.90;59.10;;;;;;4805960;29;89817;-82
2023/03/12 01:31:13;;;;;;;3.65;1.83;;;18.90;59.20;;;;;;4805987;29;87715;-82
2023/03/12 01:33:39;;;;;;;2.90;1.63;;;18.90;59.10;;;;;;4805824;29;87020;-82
2023/03/12 01:36:23;;;;;;;2.50;1.60;;;18.90;59.10;;;;;;4805728;29;88162;-82
2023/03/12 01:38:54;;;;;;;2.75;1.70;;;18.80;59.00;;;;;;4805574;29;88326;-82
2023/03/12 01:43:49;;;;;;;3.00;1.25;;;18.80;59.10;;;;;;4806797;29;87049;-83
2023/03/12 01:46:23;;;;;;;2.38;1.58;;;18.80;59.00;;;;;;4803734;29;91676;-82
2023/03/12 01:49:00;;;;;;;2.25;1.58;;;18.80;59.00;;;;;;4805463;29;87882;-82
2023/03/12 01:51:30;;;;;;;2.08;1.25;;;18.80;59.00;;;;;;4804534;29;88209;-82
2023/03/12 01:53:59;;;;;;;2.53;1.52;;;18.80;59.00;;;;;;4805008;29;88819;-81
2023/03/12 01:56:29;;;;;;;1.95;1.40;;;18.80;59.00;;;;;;4805766;29;88410;-81
2023/03/12 01:58:59;;;;;;;3.13;1.33;;;18.70;59.00;;;;;;4806388;29;88101;-82
2023/03/12 02:01:26;;;;;;;1.98;1.20;;;18.70;59.10;;;;;;4805851;29;87344;-82
2023/03/12 02:03:53;;;;;;;4.00;1.80;;;18.70;59.00;;;;;;4805127;29;87376;-81
2023/03/12 02:06:27;;;;;;;2.63;1.70;;;18.70;59.00;;;;;;4805662;29;88204;-82
2023/03/12 02:08:54;;;;;;;3.03;1.40;;;18.70;58.90;;;;;;4805361;29;88420;-82
2023/03/12 02:11:20;;;;;;;3.08;1.40;;;18.70;58.90;;;;;;4804007;29;87443;-82
2023/03/12 02:13:45;;;;;;;4.75;1.90;;;18.70;58.80;;;;;;4806044;29;87219;-82
2023/03/12 02:16:11;;;;;;;2.95;1.60;;;18.70;59.10;;;;;;4804090;29;89137;-82
2023/03/12 02:18:37;;;;;;;2.47;1.58;;;18.70;59.00;;;;;;4804195;29;88936;-82
2023/03/12 02:21:11;;;;;;;2.10;1.42;;;18.70;58.90;;;;;;4805800;29;87527;-82
2023/03/12 02:24:01;;;;;;;2.55;1.50;;;18.70;58.90;;;;;;4805408;29;87371;-82
2023/03/12 02:26:27;;;;;;;;;;;18.60;58.90;;;;;;4804919;29;87306;-82
2023/03/12 02:28:59;;;;;;;2.63;1.70;;;18.60;58.80;;;;;;4806952;29;87009;-82
2023/03/12 02:31:31;;;;;;;2.42;1.55;;;18.60;58.90;;;;;;4805648;29;86928;-82
2023/03/12 02:33:59;;;;;;;2.65;1.70;;;18.60;58.70;;;;;;4804849;29;87613;-82
2023/03/12 02:36:25;;;;;;;2.35;1.40;;;18.60;58.90;;;;;;4805098;29;88069;-83
2023/03/12 02:38:53;;;;;;;2.28;1.48;;;18.60;58.80;;;;;;4804471;29;87979;-82
2023/03/12 02:41:27;;;;;;;2.15;1.30;;;18.60;59.40;;;;;;4805142;29;88574;-82
2023/03/12 02:44:08;;;;;;;3.45;1.73;;;18.60;58.80;;;;;;4804883;29;87316;-82
2023/03/12 02:46:40;;;;;;;2.67;1.50;;;18.60;58.80;;;;;;4804675;29;89505;-82
2023/03/12 02:49:06;;;;;;;1.83;1.50;;;18.50;58.70;;;;;;4804270;29;89646;-82
2023/03/12 02:51:31;;;;;;;1.75;1.30;;;18.50;58.60;;;;;;4805243;29;87350;-83
2023/03/12 02:53:57;;;;;;;3.40;1.70;;;18.50;58.60;;;;;;4804278;29;88078;-82
2023/03/12 02:56:25;;;;;;;2.25;1.60;;;18.50;58.80;;;;;;4804735;29;88459;-82
2023/03/12 02:58:50;;;;;;;2.38;1.27;;;18.50;58.70;;;;;;4805822;29;88080;-82
2023/03/12 03:01:17;;;;;;;3.15;1.58;;;18.50;58.70;;;;;;4804340;29;87018;-82
2023/03/12 03:03:43;;;;;;;2.30;1.13;;;18.50;58.70;;;;;;4804301;29;89019;-83
2023/03/12 03:06:09;;;;;;;2.53;1.52;;;18.50;58.70;;;;;;4804092;29;89831;-82
2023/03/12 03:08:34;;;;;;;2.05;1.60;;;18.50;58.70;;;;;;4804976;29;89559;-82
2023/03/12 03:11:01;;;;;;;2.03;1.20;;;18.50;58.80;;;;;;4804910;29;86975;-82
2023/03/12 03:13:31;;;;;;;2.17;1.40;;;18.50;58.80;;;;;;4804296;29;87270;-82
2023/03/12 03:15:58;;;;;;;1.65;1.30;;;18.50;58.80;;;;;;4804260;29;88180;-82
2023/03/12 03:18:24;;;;;;;1.50;1.20;;;18.50;58.90;;;;;;4804272;29;87975;-82
2023/03/12 03:21:04;;;;;;;1.73;1.20;;;18.40;58.70;;;;;;4804486;29;87193;-82
2023/03/12 03:23:31;;;;;;;2.22;1.48;;;18.40;58.70;;;;;;4806412;29;87427;-82
2023/03/12 03:25:57;;;;;;;2.05;1.48;;;18.40;58.70;;;;;;4808452;29;88168;-82
2023/03/12 03:28:25;;;;;;;1.73;1.20;;;18.40;58.80;;;;;;4807206;29;94439;-82
2023/03/12 03:31:00;;;;;;;2.50;1.52;;;18.40;58.90;;;;;;4806763;29;88563;-82
2023/03/12 03:33:27;;;;;;;2.13;1.38;;;18.40;58.70;;;;;;4807706;29;87555;-82
2023/03/12 03:35:54;;;;;;;1.92;1.40;;;18.40;58.70;;;;;;4807175;29;88790;-82
2023/03/12 03:38:20;;;;;;;2.55;1.40;;;18.40;58.60;;;;;;4807080;29;87794;-82
2023/03/12 03:40:46;;;;;;;1.65;1.17;;;18.40;58.80;;;;;;4808184;29;87208;-82
2023/03/12 03:43:12;;;;;;;2.10;1.42;;;18.40;58.80;;;;;;4807147;29;87115;-82
2023/03/12 03:45:37;;;;;;;1.88;1.20;;;18.40;58.70;;;;;;4807327;29;89189;-82
2023/03/12 03:48:03;;;;;;;1.65;1.15;;;18.30;58.70;;;;;;4807636;29;86307;-82
2023/03/12 03:50:29;;;;;;;2.50;1.25;;;18.40;59.50;;;;;;4807843;29;87449;-82
2023/03/12 03:52:54;;;;;;;2.78;1.40;;;18.30;58.80;;;;;;4808237;29;87389;-82
2023/03/12 03:55:20;;;;;;;1.90;1.30;;;18.30;58.70;;;;;;4806532;29;89382;-81
2023/03/12 03:57:47;;;;;;;1.90;1.30;;;18.30;58.70;;;;;;4806798;29;88090;-82
2023/03/12 04:00:16;;;;;;;1.63;1.48;;;18.40;58.70;;;;;;4806995;29;87391;-81
2023/03/12 04:02:42;;;;;;;;;;;18.30;58.70;;;;;;4807401;29;87085;-82
2023/03/12 04:05:09;;;;;;;1.48;1.20;;;18.30;58.60;;;;;;4809305;29;87903;-81
2023/03/12 04:07:35;;;;;;;2.50;1.30;;;18.30;58.70;;;;;;4806873;29;88860;-82
2023/03/12 04:10:02;;;;;;;2.20;1.13;;;18.30;58.70;;;;;;4806749;29;87657;-82
2023/03/12 04:12:28;;;;;;;2.17;1.40;;;18.30;58.70;;;;;;4798018;29;87989;-82
2023/03/12 04:14:54;;;;;;;1.23;1.10;;;18.30;58.60;;;;;;4797524;29;88631;-82
2023/03/12 04:17:20;;;;;;;2.97;1.20;;;18.20;58.50;;;;;;4797953;29;87993;-82
2023/03/12 04:19:46;;;;;;;2.40;1.20;;;18.20;58.60;;;;;;4798869;29;88525;-82
2023/03/12 04:22:12;;;;;;;3.10;1.33;;;18.20;58.70;;;;;;4798538;29;88385;-82
2023/03/12 04:24:37;;;;;;;2.05;1.55;;;18.20;58.60;;;;;;4797939;29;88054;-82
2023/03/12 04:27:03;;;;;;;1.52;1.17;;;18.20;58.30;;;;;;4797275;29;87047;-82
2023/03/12 04:29:29;;;;;;;2.95;1.58;;;18.20;58.50;;;;;;4798657;29;87640;-82
2023/03/12 04:31:55;;;;;;;2.30;1.25;;;18.20;58.60;;;;;;4798118;29;87425;-82
2023/03/12 04:34:20;;;;;;;1.95;1.20;;;18.20;58.50;;;;;;4797474;29;87848;-82
2023/03/12 04:36:52;;;;;;;1.35;1.20;;;18.20;58.60;;;;;;4798539;29;87400;-82
2023/03/12 04:39:19;;;;;;;1.98;1.40;;;18.20;58.80;;;;;;4796709;29;87691;-82
2023/03/12 04:41:45;;;;;;;1.35;1.10;;;18.20;58.60;;;;;;4797203;29;87190;-82
2023/03/12 04:44:12;;;;;;;1.48;1.10;;;18.10;58.50;;;;;;4795636;29;89814;-82
2023/03/12 04:46:37;;;;;;;1.90;1.40;;;18.20;58.50;;;;;;4797386;29;88432;-82
2023/03/12 04:49:03;;;;;;;1.58;1.23;;;18.10;58.50;;;;;;4796940;29;87197;-82
2023/03/12 04:51:38;;;;;;;1.55;1.17;;;18.10;58.60;;;;;;4797377;29;87574;-82
2023/03/12 04:54:04;;;;;;;2.22;1.05;;;18.10;58.50;;;;;;4796138;29;88693;-82
2023/03/12 04:56:30;;;;;;;1.88;1.23;;;18.10;58.50;;;;;;4796670;29;87179;-82
2023/03/12 04:58:55;;;;;;;1.77;1.23;;;18.10;58.50;;;;;;4797445;29;87457;-81
2023/03/12 05:01:32;;;;;;;2.17;1.40;;;18.10;58.50;;;;;;4797794;29;87519;-82
2023/03/12 05:03:58;;;;;;;1.58;1.00;;;18.10;58.60;;;;;;4797402;29;87978;-82
2023/03/12 05:06:24;;;;;;;1.75;1.38;;;18.10;58.50;;;;;;4796555;29;88425;-83
2023/03/12 05:08:50;;;;;;;1.48;0.90;;;18.10;58.70;;;;;;4797606;29;88534;-82
2023/03/12 05:11:17;;;;;;;1.48;0.90;;;18.10;58.60;;;;;;4798333;29;87160;-82
2023/03/12 05:13:44;;;;;;;2.17;1.33;;;18.10;58.50;;;;;;4797381;29;92679;-82
2023/03/12 05:16:10;;;;;;;2.15;1.20;;;18.10;58.60;;;;;;4795496;29;88012;-82
2023/03/12 05:18:36;;;;;;;2.63;1.30;;;18.10;58.60;;;;;;4796156;29;87026;-82
2023/03/12 05:21:04;;;;;;;1.88;1.15;;;18.00;58.70;;;;;;4797925;29;87483;-82
2023/03/12 05:23:30;;;;;;;2.15;1.55;;;18.00;58.80;;;;;;4796038;29;88690;-82
2023/03/12 05:25:56;;;;;;;1.52;1.05;;;18.00;58.70;;;;;;4798572;29;87031;-81
2023/03/12 05:28:26;;;;;;;1.50;1.10;;;18.00;58.70;;;;;;4796788;29;87809;-82
2023/03/12 05:30:53;;;;;;;1.35;1.00;;;18.00;58.60;;;;;;4796098;29;87400;-82
2023/03/12 05:33:19;;;;;;;1.20;1.00;;;18.00;58.50;;;;;;4797163;29;89058;-82
2023/03/12 05:35:45;;;;;;;2.13;1.15;;;18.00;58.60;;;;;;4794812;29;88936;-82
2023/03/12 05:38:10;;;;;;;1.48;1.15;;;18.00;58.60;;;;;;4797529;29;87641;-82
2023/03/12 05:40:36;;;;;;;1.23;1.00;;;18.00;58.60;;;;;;4796395;29;87209;-82
2023/03/12 05:43:02;;;;;;;1.95;1.10;;;18.00;58.50;;;;;;4797262;29;88229;-82
2023/03/12 05:45:28;;;;;;;1.63;1.20;;;18.00;58.50;;;;;;4797344;29;87319;-82
2023/03/12 05:47:53;;;;;;;1.50;1.02;;;18.00;58.70;;;;;;4786617;29;87552;-82
2023/03/12 05:50:19;;;;;;;1.35;1.20;;;18.00;58.60;;;;;;4795919;29;86758;-81
2023/03/12 05:52:45;;;;;;;1.45;1.25;;;18.00;58.40;;;;;;4795451;29;88945;-82
2023/03/12 05:55:10;;;;;;;1.73;1.10;;;17.90;58.70;;;;;;4796130;29;88456;-81
2023/03/12 05:57:36;;;;;;;1.90;1.13;;;18.00;58.60;;;;;;4796202;29;87821;-82
2023/03/12 06:00:03;;;;;;;1.17;1.08;;;18.00;58.60;;;;;;4795909;29;87738;-82
2023/03/12 06:02:29;;;;;;;1.48;1.00;;;17.90;59.20;;;;;;4795781;29;88030;-82
2023/03/12 06:04:57;;;;;;;1.30;0.93;;;17.90;58.50;;;;;;4796856;29;87893;-82
2023/03/12 06:07:23;;;;;;;1.17;0.95;;;17.90;58.40;;;;;;4795353;29;87385;-82
2023/03/12 06:09:49;;;;;;;1.35;1.00;;;17.90;58.60;;;;;;4795838;29;87813;-82
2023/03/12 06:12:14;;;;;;;1.58;0.88;;;17.90;58.60;;;;;;4796556;29;88554;-82
2023/03/12 06:14:40;;;;;;;1.88;1.20;;;17.90;58.50;;;;;;4797020;29;88182;-82
2023/03/12 06:17:06;;;;;;;1.92;1.20;;;17.90;58.50;;;;;;4797418;29;87582;-82
2023/03/12 06:19:31;;;;;;;1.20;1.00;;;17.90;58.60;;;;;;4794939;29;87585;-82
2023/03/12 06:21:57;;;;;;;2.10;1.27;;;18.00;58.70;;;;;;4795550;29;89607;-82
2023/03/12 06:24:23;;;;;;;1.15;1.00;;;17.90;58.60;;;;;;4794942;29;89881;-82
2023/03/12 06:26:49;;;;;;;1.95;1.10;;;17.90;58.70;;;;;;4796186;29;86956;-82
2023/03/12 06:29:14;;;;;;;2.72;1.20;;;17.90;58.70;;;;;;4795255;29;87958;-82
2023/03/12 06:31:40;;;;;;;1.65;1.10;;;17.90;58.80;;;;;;4795103;29;88987;-82
2023/03/12 06:34:07;;;;;;;1.70;1.17;;;17.90;58.70;;;;;;4794687;29;87816;-82
2023/03/12 06:36:33;;;;;;;1.15;1.02;;;17.90;58.80;;;;;;4795861;29;86996;-82
2023/03/12 06:38:58;;;;;;;1.90;1.30;;;17.90;58.80;;;;;;4796043;29;88102;-82
2023/03/12 06:41:27;;;;;;;1.52;1.10;;;17.90;58.70;;;;;;4795117;29;88161;-80
2023/03/12 06:43:53;;;;;;;5.45;1.45;;;17.90;58.60;;;;;;4796125;29;88237;-82
2023/03/12 06:46:24;;;;;;;2.85;1.42;;;18.00;57.70;;;;;;4794650;29;88286;-83
2023/03/12 06:48:50;;;;;;;3.92;1.70;;;18.00;57.80;;;;;;4795134;29;87311;-81
2023/03/12 06:51:16;;;;;;;2.55;1.30;;;18.10;57.20;;;;;;4794554;29;87390;-82
2023/03/12 06:53:43;;;;;;;2.88;1.45;;;18.20;55.70;;;;;;4791661;29;87726;-81
2023/03/12 06:56:09;;;;;;;5.20;2.00;;;18.40;56.50;;;;;;4791870;29;87041;-81
2023/03/12 06:58:38;;;;;;;3.30;1.55;;;18.50;56.70;;;;;;4794215;29;87470;-82
2023/03/12 07:01:04;;;;;;;3.70;1.60;;;18.50;56.60;;;;;;4793695;29;88742;-82
2023/03/12 07:03:30;;;;;;;3.95;1.55;;;18.60;56.60;;;;;;4794126;29;88491;-82
2023/03/12 07:05:57;;;;;;;5.40;2.13;;;18.80;56.90;;;;;;4792387;29;87166;-83
2023/03/12 07:08:24;;;;;;;6.78;1.58;;;18.80;57.00;;;;;;4789292;29;87546;-82
2023/03/12 07:10:49;;;;;;;2.50;1.38;;;19.00;56.70;;;;;;4789675;29;88818;-82
2023/03/12 07:13:15;;;;;;;2.55;1.55;;;19.10;56.50;;;;;;4789703;29;90641;-82
2023/03/12 07:15:41;;;;;;;2.72;1.30;;;19.20;56.40;;;;;;4793002;29;87008;-82
2023/03/12 07:18:09;;;;;;;3.78;1.20;;;19.40;56.40;;;;;;4793465;29;87546;-81
2023/03/12 07:20:40;;;;;;;4.60;1.70;;;19.50;56.10;;;;;;4796129;29;86908;-82
2023/03/12 07:23:06;;;;;;;2.63;1.30;;;19.50;56.00;;;;;;4795272;29;87148;-83
2023/03/12 07:25:36;;;;;;;2.33;1.40;;;19.60;56.10;;;;;;4796306;29;87492;-83
2023/03/12 07:28:02;;;;;;;3.17;1.40;;;19.70;56.00;;;;;;4793347;29;87342;-82
2023/03/12 07:30:32;;;;;;;2.08;1.10;;;19.70;55.90;;;;;;4795592;29;88099;-82
2023/03/12 07:33:04;;;;;;;3.25;1.75;;;19.70;55.90;;;;;;4794480;29;87793;-81
2023/03/12 07:35:31;;;;;;;2.80;1.40;;;19.70;55.80;;;;;;4795162;29;87920;-82
2023/03/12 07:37:58;;;;;;;2.35;1.15;;;19.70;56.00;;;;;;4794876;29;87408;-81
2023/03/12 07:40:24;;;;;;;2.47;1.30;;;19.70;56.00;;;;;;4794445;29;89743;-81
2023/03/12 07:42:51;;;;;;;2.80;1.35;;;19.60;56.80;;;;;;4794475;29;88010;-82
2023/03/12 07:45:17;;;;;;;6.07;1.90;;;19.60;56.30;;;;;;4793308;29;87664;-81
2023/03/12 07:47:43;;;;;;;3.53;1.90;;;19.50;55.80;;;;;;4797106;29;89243;-82
2023/03/12 07:50:09;;;;;;;4.82;1.60;;;19.50;55.70;;;;;;4795700;29;88819;-82
2023/03/12 07:52:35;;;;;;;2.22;1.35;;;19.50;56.10;;;;;;4796548;29;88763;-82
2023/03/12 07:55:00;;;;;;;4.43;1.35;;;19.40;56.30;;;;;;4794152;29;87146;-82
2023/03/12 07:57:26;;;;;;;2.28;1.10;;;19.40;56.60;;;;;;4793451;29;87544;-82
2023/03/12 07:59:52;;;;;;;4.57;1.50;;;19.30;56.80;;;;;;4794006;29;88852;-82
2023/03/12 08:02:19;;;;;;;2.88;1.50;;;19.30;57.10;;;;;;4796524;29;89120;-82
2023/03/12 08:04:45;;;;;;;3.17;1.35;;;19.20;57.00;;;;;;4794258;29;87924;-82
2023/03/12 08:07:11;;;;;;;3.15;1.25;;;19.20;56.90;;;;;;4795009;29;87400;-83
2023/03/12 08:09:37;;;;;;;2.65;1.10;;;19.20;57.00;;;;;;4793411;29;87816;-81
2023/03/12 08:12:04;;;;;;;2.03;1.40;;;19.10;57.20;;;;;;4800260;29;91214;-83
2023/03/12 08:14:32;;;;;;;5.32;1.90;;;19.10;57.40;;;;;;4805239;29;87581;-83
2023/03/12 08:16:58;;;;;;;2.35;1.20;;;19.00;57.50;;;;;;4808470;29;87562;-83
2023/03/12 08:19:23;;;;;;;2.90;1.30;;;19.00;57.70;;;;;;4807493;29;87999;-82
2023/03/12 08:21:52;;;;;;;3.60;1.48;;;19.00;58.00;;;;;;4807283;29;87526;-82
2023/03/12 08:24:18;;;;;;;5.53;1.55;;;19.00;57.90;;;;;;4806469;29;88383;-82
2023/03/12 08:26:47;;;;;;;6.03;1.85;;;19.10;57.90;;;;;;4806358;29;87360;-82
2023/03/12 08:29:13;;;;;;;5.20;1.80;;;19.20;57.80;;;;;;4806408;29;88794;-82
2023/03/12 08:31:39;;;;;;;6.15;2.40;;;19.30;57.70;;;;;;4806266;29;88425;-82
2023/03/12 08:34:04;;;;;;;4.72;1.35;;;19.40;57.50;;;;;;4806074;29;86984;-81
2023/03/12 08:36:30;;;;;;;5.03;1.95;;;19.50;57.50;;;;;;4805607;29;87142;-81
2023/03/12 08:38:56;;;;;;;10.38;3.03;;;19.60;57.30;;;;;;4805669;29;88132;-82
2023/03/12 08:41:21;;;;;;;15.10;4.20;;;19.70;57.00;;;;;;4805604;29;90944;-82
2023/03/12 08:43:47;;;;;;;14.18;3.55;;;19.70;56.00;;;;;;4805407;29;87336;-82
2023/03/12 08:46:13;;;;;;;16.40;4.78;;;19.60;55.30;;;;;;4805003;29;87366;-82
2023/03/12 08:48:39;;;;;;;13.55;3.50;;;19.70;55.00;;;;;;4805838;29;88985;-83
2023/03/12 08:51:06;;;;;;;14.88;4.22;;;19.60;54.80;;;;;;4806650;29;89265;-82
2023/03/12 08:53:33;;;;;;;11.63;3.72;;;19.50;54.70;;;;;;4805464;29;87379;-82
2023/03/12 08:56:00;;;;;;;10.68;3.70;;;19.50;54.70;;;;;;4805372;29;87739;-81
2023/03/12 08:58:26;;;;;;;14.55;4.10;;;19.50;54.60;;;;;;4806027;29;88434;-82
2023/03/12 09:00:52;;;;;;;13.43;3.85;;;19.50;55.20;;;;;;4806125;29;87749;-81
2023/03/12 09:03:19;;;;;;;17.20;4.90;;;19.40;56.20;;;;;;4806030;29;87320;-82
2023/03/12 09:05:46;;;;;;;12.30;3.60;;;19.40;56.50;;;;;;4805798;29;87487;-82
2023/03/12 09:08:12;;;;;;;14.57;3.90;;;19.40;56.20;;;;;;4806366;29;87958;-82
2023/03/12 09:10:37;;;;;;;12.95;3.92;;;19.40;56.40;;;;;;4804880;29;89306;-82
2023/03/12 09:13:04;;;;;;;9.55;3.85;;;19.50;56.40;;;;;;4804590;29;88486;-81
2023/03/12 09:15:30;;;;;;;12.57;3.08;;;19.50;56.60;;;;;;4805160;29;87316;-82
2023/03/12 09:17:55;;;;;;;11.57;3.45;;;19.40;56.70;;;;;;4804542;29;88302;-81
2023/03/12 09:20:23;;;;;;;14.48;4.18;;;19.40;57.00;;;;;;4805814;29;87329;-82
2023/03/12 09:22:49;;;;;;;10.30;3.20;;;19.40;57.20;;;;;;4806740;29;87716;-81
2023/03/12 09:25:15;;;;;;;10.85;3.35;;;19.50;56.90;;;;;;4804815;29;86995;-82
2023/03/12 09:27:46;;;;;;;12.40;3.63;;;19.50;56.60;;;;;;4805047;29;88723;-82
2023/03/12 09:30:18;;;;;;;10.07;3.15;;;19.70;56.40;;;;;;4805411;29;88151;-82
2023/03/12 09:32:44;;;;;;;8.82;2.85;;;19.80;56.40;;;;;;4785917;29;87017;-82
2023/03/12 09:35:12;;;;;;;8.82;2.80;;;19.90;56.10;;;;;;4798069;29;87428;-82
2023/03/12 09:37:37;;;;;;;7.38;2.50;;;20.00;56.10;;;;;;4804672;29;89340;-82
2023/03/12 09:40:06;;;;;;;7.97;3.00;;;20.10;56.30;;;;;;4804513;29;90423;-82
2023/03/12 09:42:49;;;;;;;6.90;2.90;;;20.10;56.30;;;;;;4802572;29;87442;-81
2023/03/12 09:45:23;;;;;;;10.52;3.10;;;20.20;56.20;;;;;;4804530;29;87476;-82
2023/03/12 09:47:55;;;;;;;13.07;3.42;;;20.20;56.00;;;;;;4803497;29;89543;-81
2023/03/12 09:50:27;;;;;;;12.35;4.50;;;20.10;55.70;;;;;;4803542;29;87929;-81
2023/03/12 09:53:00;;;;;;;68.18;18.42;;;20.10;55.50;;;;;;4803284;29;87408;-81
2023/03/12 09:55:31;;;;;;;634.95;190.35;;;20.00;55.30;;;;;;4793322;29;87567;-81
2023/03/12 09:57:58;;;;;;;848.13;276.10;;;20.00;55.20;;;;;;4801202;29;88421;-81
2023/03/12 10:00:29;;;;;;;722.25;226.15;;;19.90;55.80;;;;;;4800811;29;88470;-82
2023/03/12 10:02:58;;;;;;;557.15;155.65;;;19.90;55.00;;;;;;4801053;29;93998;-81
2023/03/12 10:05:43;;;;;;;514.05;145.45;;;19.90;54.80;;;;;;4802093;29;87008;-82
2023/03/12 10:08:23;;;;;;;496.92;130.48;;;19.90;54.70;;;;;;4803275;29;88241;-83
2023/03/12 10:10:54;;;;;;;430.48;116.28;;;19.80;54.50;;;;;;4802085;29;92868;-82
2023/03/12 10:13:26;;;;;;;455.45;122.45;;;19.80;54.80;;;;;;4794859;29;87448;-82
2023/03/12 10:16:29;;;;;;;356.20;98.00;;;19.80;54.90;;;;;;4791801;29;87624;-81
2023/03/12 10:18:58;;;;;;;301.63;81.47;;;19.80;55.10;;;;;;4702855;29;88555;-82
2023/03/12 10:21:43;;;;;;;267.20;72.72;;;19.80;55.10;;;;;;4705687;29;88152;-82
2023/03/12 10:24:45;;;;;;;300.50;82.32;;;19.90;55.10;;;;;;4708663;29;87234;-82
2023/03/12 10:27:14;;;;;;;271.10;76.38;;;19.90;55.10;;;;;;4702138;29;87607;-82
2023/03/12 10:29:47;;;;;;;246.30;70.63;;;19.90;55.30;;;;;;4702418;29;89126;-83
2023/03/12 10:32:20;;;;;;;249.10;68.97;;;20.00;55.40;;;;;;4703495;29;88207;-83
2023/03/12 10:34:53;;;;;;;214.88;61.65;;;20.00;55.10;;;;;;4707412;29;87585;-84
2023/03/12 10:37:24;;;;;;;223.15;62.78;;;20.00;55.40;;;;;;4704207;29;86925;-84
2023/03/12 10:39:51;;;;;;;235.02;66.80;;;19.90;55.70;;;;;;4710886;29;89170;-83
2023/03/12 10:42:20;;;;;;;205.30;61.42;;;19.90;55.20;;;;;;4702822;29;88467;-82
2023/03/12 10:44:51;;;;;;;191.73;57.30;;;20.00;55.40;;;;;;4707415;29;87209;-83
2023/03/12 10:47:38;;;;;;;190.13;55.85;;;20.10;55.30;;;;;;4703528;29;86993;-83
2023/03/12 10:50:20;;;;;;;186.85;54.20;;;20.00;55.10;;;;;;4700804;29;93577;-82
2023/03/12 10:52:48;;;;;;;185.18;55.63;;;20.10;55.20;;;;;;4704241;29;92269;-84
2023/03/12 10:55:28;;;;;;;168.27;47.92;;;20.10;55.30;;;;;;4750208;29;88160;-83
2023/03/12 10:57:55;;;;;;;166.20;51.17;;;20.10;55.40;;;;;;4792736;29;87070;-84
2023/03/12 11:00:31;;;;;;;154.80;46.88;;;20.10;55.40;;;;;;4794088;29;88175;-84
2023/03/12 11:03:05;;;;;;;139.80;44.65;;;20.10;55.60;;;;;;4794206;29;88244;-83
2023/03/12 11:05:32;;;;;;;149.38;45.97;;;20.10;55.90;;;;;;4793157;29;87550;-84
2023/03/12 11:08:00;;;;;;;160.15;45.15;;;20.10;56.00;;;;;;4794269;29;87448;-84
2023/03/12 11:10:46;;;;;;;148.65;46.72;;;20.10;56.20;;;;;;4794516;29;87742;-83
2023/03/12 11:13:43;;;;;;;152.65;46.40;;;20.10;56.30;;;;;;4803286;29;89877;-82
2023/03/12 11:16:15;;;;;;;144.32;45.65;;;20.10;56.60;;;;;;4801175;29;87745;-83
2023/03/12 11:18:58;;;;;;;130.23;39.83;;;20.20;56.50;;;;;;4801885;29;87232;-83
2023/03/12 11:21:24;;;;;;;130.02;36.38;;;20.10;56.60;;;;;;4802546;29;89591;-83
2023/03/12 11:23:56;;;;;;;112.43;34.45;;;20.00;56.10;;;;;;4795370;29;91090;-83
2023/03/12 11:26:30;;;;;;;104.28;32.05;;;20.10;56.10;;;;;;4802668;29;87124;-81
2023/03/12 11:29:38;;;;;;;113.03;35.13;;;20.00;56.00;;;;;;4803052;29;87669;-83
2023/03/12 11:32:46;;;;;;;124.40;36.63;;;20.00;56.50;;;;;;4764046;29;95868;-81
2023/03/12 11:35:17;;;;;;;102.10;34.92;;;20.10;56.50;;;;;;4726427;29;93326;-83
2023/03/12 11:38:12;;;;;;;105.38;34.17;;;20.10;56.50;;;;;;4728197;29;87178;-83
2023/03/12 11:40:58;;;;;;;107.72;34.30;;;20.10;56.70;;;;;;4727949;29;86399;-83
2023/03/12 11:43:33;;;;;;;95.82;32.55;;;20.10;56.80;;;;;;4728434;29;89684;-81
2023/03/12 11:46:16;;;;;;;96.38;34.33;;;20.10;57.20;;;;;;4726880;29;89195;-81
2023/03/12 11:49:00;;;;;;;96.13;31.83;;;20.20;57.70;;;;;;4729041;29;88812;-81
2023/03/12 11:51:50;;;;;;;97.80;32.45;;;20.20;56.80;;;;;;4729356;29;87175;-80
2023/03/12 11:54:18;;;;;;;95.00;31.45;;;20.20;57.20;;;;;;4728486;29;88512;-81
2023/03/12 11:56:57;;;;;;;100.38;32.33;;;20.30;57.40;;;;;;4728369;29;88214;-82
2023/03/12 11:59:42;;;;;;;94.47;31.23;;;20.20;57.40;;;;;;4729117;29;87456;-82
2023/03/12 12:02:16;;;;;;;89.13;29.95;;;20.30;57.60;;;;;;4730749;29;87954;-82
2023/03/12 12:04:56;;;;;;;90.60;32.55;;;20.30;57.30;;;;;;4714394;29;91853;-82
2023/03/12 12:08:15;;;;;;;94.60;30.23;;;20.30;57.50;;;;;;4803093;29;91719;-82
2023/03/12 12:11:02;;;;;;;85.18;29.08;;;20.30;57.60;;;;;;4765408;29;87058;-82
2023/03/12 12:13:43;;;;;;;83.80;29.35;;;20.30;57.80;;;;;;4765702;29;87695;-82
2023/03/12 12:16:27;;;;;;;83.25;28.55;;;20.30;57.70;;;;;;4764679;29;88703;-83
2023/03/12 12:18:55;;;;;;;83.28;28.27;;;20.30;58.00;;;;;;4766006;29;89283;-82
2023/03/12 12:21:30;;;;;;;77.45;28.13;;;20.30;57.80;;;;;;4767935;29;87725;-82
2023/03/12 12:24:23;;;;;;;79.03;26.85;;;20.30;57.70;;;;;;4765808;29;87729;-82
2023/03/12 12:26:54;;;;;;;90.60;29.77;;;20.30;57.70;;;;;;4765663;29;88691;-82
2023/03/12 12:29:48;;;;;;;83.15;27.30;;;20.30;58.00;;;;;;4765625;29;88635;-82
2023/03/12 12:32:36;;;;;;;84.75;27.73;;;20.20;58.20;;;;;;4750199;29;89965;-82
2023/03/12 12:35:25;;;;;;;74.80;27.25;;;20.20;58.20;;;;;;4766480;29;91767;-82
2023/03/12 12:38:14;;;;;;;74.73;26.83;;;20.20;58.20;;;;;;4765646;29;93566;-82
2023/03/12 12:40:48;;;;;;;74.47;28.02;;;20.20;58.10;;;;;;4765626;29;89334;-82
2023/03/12 12:43:37;;;;;;;79.72;27.25;;;20.20;57.90;;;;;;4764554;29;88247;-82
2023/03/12 12:46:10;;;;;;;72.38;25.98;;;20.20;57.90;;;;;;4785512;29;87957;-82
2023/03/12 12:48:42;;;;;;;71.72;25.83;;;20.20;58.10;;;;;;4804819;29;88944;-82
2023/03/12 12:51:08;;;;;;;69.00;25.38;;;20.20;58.10;;;;;;4804261;29;88344;-82
2023/03/12 12:53:58;;;;;;;84.20;27.08;;;20.20;58.10;;;;;;4804412;29;87333;-82
2023/03/12 12:56:44;;;;;;;74.75;25.92;;;20.20;57.90;;;;;;4804265;29;87491;-82